Time;durP1;ratioP1;P1;durP2;ratioP2;P2;SDS_P1;SDS_P2;PMS_P1;PMS_P2;Temp;Humidity;BMP_temperature;BMP_pressure;BME280_temperature;BME280_humidity;BME280_pressure;Samples;Min_cycle;Max_cycle;Signal;HPM_P1;HPM_P2
2022/07/14 00:01:44;;;;;;;6.27;2.30;;;19.20;99.90;;;;;;5033872;28;20177;-40
2022/07/14 00:04:09;;;;;;;6.63;2.77;;;19.20;99.90;;;;;;5033717;28;20256;-40
2022/07/14 00:06:36;;;;;;;6.87;2.43;;;19.10;99.90;;;;;;5033608;28;20180;-41
2022/07/14 00:09:02;;;;;;;6.97;2.60;;;19.10;99.90;;;;;;5033540;28;20264;-38
2022/07/14 00:11:28;;;;;;;7.60;2.87;;;19.10;99.90;;;;;;5033733;28;20177;-41
2022/07/14 00:13:54;;;;;;;7.67;2.67;;;19.10;99.90;;;;;;5033783;28;20263;-42
2022/07/14 00:16:20;;;;;;;6.70;2.70;;;19.10;99.90;;;;;;5033695;28;20663;-38
2022/07/14 00:18:45;;;;;;;6.33;2.40;;;19.00;99.90;;;;;;5033574;28;20201;-40
2022/07/14 00:21:15;;;;;;;5.10;2.00;;;19.00;99.90;;;;;;5033446;28;20675;-40
2022/07/14 00:23:46;;;;;;;8.83;2.37;;;18.90;99.90;;;;;;5033383;28;20175;-40
2022/07/14 00:26:12;;;;;;;5.47;2.50;;;19.00;99.90;;;;;;5033769;28;20579;-41
2022/07/14 00:28:38;;;;;;;6.70;2.10;;;18.90;99.90;;;;;;5033756;28;20610;-40
2022/07/14 00:31:08;;;;;;;6.97;2.27;;;18.80;99.90;;;;;;5033255;28;20271;-41
2022/07/14 00:33:35;;;;;;;6.13;2.43;;;18.80;99.90;;;;;;5032499;28;20530;-40
2022/07/14 00:36:01;;;;;;;7.07;2.07;;;18.80;99.90;;;;;;5035872;28;20259;-41
2022/07/14 00:38:27;;;;;;;10.57;2.40;;;18.80;99.90;;;;;;5033101;28;20300;-40
2022/07/14 00:40:52;;;;;;;9.23;2.33;;;18.70;99.90;;;;;;5034062;28;20185;-40
2022/07/14 00:43:18;;;;;;;8.90;2.47;;;18.60;99.90;;;;;;5033093;28;20613;-41
2022/07/14 00:45:44;;;;;;;8.60;2.30;;;18.60;99.90;;;;;;5033247;28;20181;-40
2022/07/14 00:48:12;;;;;;;6.93;2.13;;;18.50;99.90;;;;;;5033466;28;20541;-41
2022/07/14 00:50:41;;;;;;;5.13;2.40;;;18.50;99.90;;;;;;5033605;28;20201;-40
2022/07/14 00:53:08;;;;;;;9.70;2.63;;;18.50;99.90;;;;;;5033522;28;20185;-40
2022/07/14 00:55:34;;;;;;;6.57;2.27;;;18.50;99.90;;;;;;5033431;28;20196;-41
2022/07/14 00:58:00;;;;;;;11.03;2.60;;;18.50;99.90;;;;;;5033996;28;20205;-41
2022/07/14 01:00:26;;;;;;;14.07;2.70;;;18.40;99.90;;;;;;5034314;28;20204;-40
2022/07/14 01:02:52;;;;;;;4.00;2.17;;;18.40;99.90;;;;;;5034856;28;20196;-41
2022/07/14 01:05:18;;;;;;;6.80;2.67;;;18.40;99.90;;;;;;5034049;28;20169;-41
2022/07/14 01:07:44;;;;;;;7.23;2.47;;;18.40;99.90;;;;;;5034395;28;20649;-41
2022/07/14 01:10:10;;;;;;;6.37;2.40;;;18.40;99.90;;;;;;5034102;28;20201;-40
2022/07/14 01:12:37;;;;;;;5.73;2.40;;;18.40;99.90;;;;;;5033836;28;20180;-40
2022/07/14 01:15:04;;;;;;;7.43;2.40;;;18.40;99.90;;;;;;5033016;28;20191;-39
2022/07/14 01:17:31;;;;;;;8.00;2.60;;;18.40;99.90;;;;;;5032786;28;20188;-40
2022/07/14 01:19:57;;;;;;;6.10;2.23;;;18.30;99.90;;;;;;5032787;28;20688;-39
2022/07/14 01:22:22;;;;;;;4.97;2.10;;;18.20;99.90;;;;;;5032771;28;20177;-38
2022/07/14 01:24:48;;;;;;;12.70;2.50;;;18.30;99.90;;;;;;5032782;28;20641;-40
2022/07/14 01:27:13;;;;;;;7.33;2.63;;;18.20;99.90;;;;;;5032757;28;20266;-39
2022/07/14 01:29:39;;;;;;;7.13;2.27;;;18.20;99.90;;;;;;5032932;28;20220;-40
2022/07/14 01:32:05;;;;;;;6.37;2.93;;;18.20;99.90;;;;;;5032757;28;20645;-40
2022/07/14 01:34:30;;;;;;;7.37;2.00;;;18.20;99.90;;;;;;5032683;28;20185;-39
2022/07/14 01:36:57;;;;;;;9.00;2.03;;;18.10;99.90;;;;;;5032613;28;20211;-39
2022/07/14 01:39:22;;;;;;;8.03;2.20;;;18.10;99.90;;;;;;5032767;28;20223;-38
2022/07/14 01:41:49;;;;;;;6.70;2.30;;;18.10;99.90;;;;;;5033725;28;20255;-39
2022/07/14 01:44:15;;;;;;;8.97;2.40;;;18.10;99.90;;;;;;5036155;28;20168;-40
2022/07/14 01:46:41;;;;;;;6.37;2.30;;;18.00;99.90;;;;;;5036394;28;20235;-40
2022/07/14 01:49:07;;;;;;;7.57;2.50;;;18.00;99.90;;;;;;5036053;28;20594;-40
2022/07/14 01:51:33;;;;;;;6.80;2.37;;;18.00;99.90;;;;;;5036122;28;20644;-41
2022/07/14 01:53:59;;;;;;;7.97;2.50;;;18.00;99.90;;;;;;5036162;28;20184;-43
2022/07/14 01:56:25;;;;;;;7.00;2.30;;;18.00;99.90;;;;;;5037058;28;20177;-44
2022/07/14 01:58:50;;;;;;;7.90;2.40;;;18.00;99.90;;;;;;5035969;28;20204;-43
2022/07/14 02:04:01;;;;;;;5.20;2.13;;;18.00;99.90;;;;;;5036389;28;20631;-43
2022/07/14 02:06:27;;;;;;;9.30;2.70;;;17.90;99.90;;;;;;5035789;28;20299;-42
2022/07/14 02:08:53;;;;;;;9.23;2.30;;;17.90;99.90;;;;;;5035580;28;20212;-43
2022/07/14 02:14:03;;;;;;;9.00;2.70;;;17.90;99.90;;;;;;5035915;28;20199;-43
2022/07/14 02:16:30;;;;;;;9.57;2.30;;;17.80;99.90;;;;;;5035770;28;20234;-43
2022/07/14 02:18:57;;;;;;;10.47;2.47;;;17.80;99.90;;;;;;5035220;28;20688;-44
2022/07/14 02:21:23;;;;;;;6.70;2.30;;;17.70;99.90;;;;;;5035496;28;20264;-43
2022/07/14 02:23:48;;;;;;;6.17;2.03;;;17.70;99.90;;;;;;5035395;28;20169;-43
2022/07/14 02:26:14;;;;;;;5.93;2.00;;;17.60;99.90;;;;;;5035380;28;20641;-43
2022/07/14 02:28:40;;;;;;;10.60;2.10;;;17.60;99.90;;;;;;5036071;28;20271;-43
2022/07/14 02:31:08;;;;;;;7.60;2.40;;;17.60;99.90;;;;;;5035226;28;20201;-42
2022/07/14 02:33:34;;;;;;;9.37;2.90;;;17.50;99.90;;;;;;5035594;28;20230;-43
2022/07/14 02:35:59;;;;;;;10.83;2.50;;;17.60;99.90;;;;;;5035233;28;20615;-44
2022/07/14 02:38:25;;;;;;;8.00;2.33;;;17.50;99.90;;;;;;5034932;28;20213;-42
2022/07/14 02:40:50;;;;;;;7.47;2.27;;;17.50;99.90;;;;;;5035019;28;20204;-44
2022/07/14 02:43:16;;;;;;;7.77;2.43;;;17.50;99.90;;;;;;5035579;28;20173;-41
2022/07/14 02:45:42;;;;;;;8.23;2.13;;;17.50;99.90;;;;;;5035007;28;20196;-43
2022/07/14 02:48:08;;;;;;;11.07;2.50;;;17.40;99.90;;;;;;5035483;28;20541;-42
2022/07/14 02:50:36;;;;;;;7.17;2.03;;;17.40;99.90;;;;;;5034818;28;20571;-40
2022/07/14 02:53:02;;;;;;;7.83;2.20;;;17.40;99.90;;;;;;5034708;28;20180;-43
2022/07/14 02:55:28;;;;;;;9.93;3.03;;;17.40;99.90;;;;;;5034791;28;20204;-43
2022/07/14 02:57:54;;;;;;;8.80;2.80;;;17.30;99.90;;;;;;5035405;28;20193;-43
2022/07/14 03:00:20;;;;;;;12.57;2.97;;;17.30;99.90;;;;;;5034726;28;20208;-42
2022/07/14 03:02:45;;;;;;;6.63;2.20;;;17.30;99.90;;;;;;5034959;28;20161;-44
2022/07/14 03:05:11;;;;;;;7.07;2.40;;;17.20;99.90;;;;;;5034958;28;20189;-42
2022/07/14 03:07:36;;;;;;;10.37;2.83;;;17.20;99.90;;;;;;5034567;28;20803;-41
2022/07/14 03:10:03;;;;;;;11.00;2.73;;;17.20;99.90;;;;;;5034387;28;20205;-43
2022/07/14 03:12:29;;;;;;;9.97;2.80;;;17.10;99.90;;;;;;5034491;28;20215;-43
2022/07/14 03:14:54;;;;;;;8.87;2.40;;;17.10;99.90;;;;;;5034679;28;20188;-43
2022/07/14 03:17:20;;;;;;;7.33;2.17;;;17.10;99.90;;;;;;5034850;28;20534;-42
2022/07/14 03:19:45;;;;;;;10.67;2.53;;;17.00;99.90;;;;;;5034238;28;20213;-42
2022/07/14 03:22:11;;;;;;;7.03;2.17;;;17.00;99.90;;;;;;5034350;28;20173;-43
2022/07/14 03:24:37;;;;;;;8.70;2.57;;;17.00;99.90;;;;;;5034308;28;20181;-44
2022/07/14 03:27:02;;;;;;;11.17;2.57;;;16.90;99.90;;;;;;5034239;28;20177;-43
2022/07/14 03:29:28;;;;;;;9.30;2.63;;;16.90;99.90;;;;;;5034315;28;20205;-42
2022/07/14 03:31:55;;;;;;;12.30;3.10;;;16.90;99.90;;;;;;5034415;28;20204;-44
2022/07/14 03:34:21;;;;;;;10.03;2.83;;;16.90;99.90;;;;;;5034360;28;20172;-42
2022/07/14 03:36:46;;;;;;;9.40;3.00;;;16.90;99.90;;;;;;5033977;28;20683;-43
2022/07/14 03:39:13;;;;;;;9.43;2.70;;;16.90;99.90;;;;;;5034470;28;20208;-41
2022/07/14 03:41:39;;;;;;;10.57;1.97;;;16.80;99.90;;;;;;5034241;28;20177;-43
2022/07/14 03:44:05;;;;;;;8.53;2.30;;;16.80;99.90;;;;;;5034571;28;20686;-45
2022/07/14 03:46:31;;;;;;;9.70;2.63;;;16.70;99.90;;;;;;5034221;28;20188;-44
2022/07/14 03:48:56;;;;;;;8.80;2.70;;;16.80;99.90;;;;;;5032529;28;20185;-44
2022/07/14 03:51:22;;;;;;;6.80;2.37;;;16.70;99.90;;;;;;5034036;28;20292;-43
2022/07/14 03:53:48;;;;;;;12.63;2.50;;;16.70;99.90;;;;;;5033726;28;20185;-42
2022/07/14 03:56:14;;;;;;;9.20;2.43;;;16.70;99.90;;;;;;5034021;28;20208;-43
2022/07/14 03:58:39;;;;;;;9.93;3.10;;;16.70;99.90;;;;;;5033658;28;20232;-43
2022/07/14 04:01:05;;;;;;;14.33;3.20;;;16.60;99.90;;;;;;5033593;28;20561;-43
2022/07/14 04:03:31;;;;;;;8.87;2.67;;;16.60;99.90;;;;;;5033634;28;20204;-43
2022/07/14 04:05:57;;;;;;;11.70;2.97;;;16.60;99.90;;;;;;5033375;28;20307;-41
2022/07/14 04:08:23;;;;;;;12.23;3.00;;;16.60;99.90;;;;;;5033815;28;20185;-42
2022/07/14 04:10:48;;;;;;;7.10;2.30;;;16.60;99.90;;;;;;5033547;28;20197;-42
2022/07/14 04:13:15;;;;;;;9.87;2.73;;;16.50;99.90;;;;;;5033834;28;20181;-42
2022/07/14 04:15:41;;;;;;;11.20;2.60;;;16.50;99.90;;;;;;5033578;28;20173;-44
2022/07/14 04:18:07;;;;;;;9.40;3.00;;;16.60;99.90;;;;;;5037325;28;20656;-42
2022/07/14 04:20:33;;;;;;;9.23;3.63;;;16.50;99.90;;;;;;5033686;28;20188;-42
2022/07/14 04:22:59;;;;;;;11.50;2.90;;;16.50;99.90;;;;;;5033620;28;20273;-43
2022/07/14 04:25:24;;;;;;;11.57;3.50;;;16.50;99.90;;;;;;5032240;28;20176;-42
2022/07/14 04:27:51;;;;;;;8.97;3.10;;;16.50;99.90;;;;;;5033559;28;20246;-42
2022/07/14 04:30:17;;;;;;;8.43;2.57;;;16.50;99.90;;;;;;5033498;28;20192;-45
2022/07/14 04:32:43;;;;;;;10.47;3.10;;;16.50;99.90;;;;;;5033405;28;20184;-44
2022/07/14 04:35:09;;;;;;;9.67;2.83;;;16.60;99.90;;;;;;5033762;28;20184;-43
2022/07/14 04:37:34;;;;;;;8.90;2.90;;;16.50;99.90;;;;;;5033501;28;20201;-43
2022/07/14 04:40:00;;;;;;;9.43;2.47;;;16.50;99.90;;;;;;5033739;28;20545;-43
2022/07/14 04:42:26;;;;;;;13.83;3.37;;;16.50;99.90;;;;;;5033658;28;20544;-41
2022/07/14 04:44:52;;;;;;;11.43;2.63;;;16.50;99.90;;;;;;5033327;28;20609;-44
2022/07/14 04:47:18;;;;;;;7.93;2.90;;;16.50;99.90;;;;;;5033659;28;20532;-43
2022/07/14 04:52:27;;;;;;;13.47;3.10;;;16.50;99.90;;;;;;5037729;28;20223;-42
2022/07/14 04:54:53;;;;;;;10.03;2.47;;;16.50;99.90;;;;;;5033422;28;20181;-43
2022/07/14 04:57:19;;;;;;;8.63;2.80;;;16.40;99.90;;;;;;5033928;28;20177;-43
2022/07/14 04:59:45;;;;;;;14.57;3.43;;;16.40;99.90;;;;;;5034060;28;20219;-43
2022/07/14 05:02:11;;;;;;;12.07;2.90;;;16.40;99.90;;;;;;5033026;28;20671;-43
2022/07/14 05:04:37;;;;;;;16.17;3.80;;;16.40;99.90;;;;;;5033190;28;20212;-43
2022/07/14 05:07:03;;;;;;;10.40;2.50;;;16.40;99.90;;;;;;5033228;28;20173;-40
2022/07/14 05:09:33;;;;;;;11.23;3.20;;;16.40;99.90;;;;;;5033172;28;20224;-39
2022/07/14 05:12:02;;;;;;;11.50;3.37;;;16.40;99.90;;;;;;5033810;28;20582;-45
2022/07/14 05:14:32;;;;;;;9.63;2.53;;;16.50;99.90;;;;;;5033322;28;20200;-42
2022/07/14 05:16:57;;;;;;;12.17;3.07;;;16.50;99.90;;;;;;5033479;28;20185;-43
2022/07/14 05:19:23;;;;;;;12.93;3.17;;;16.60;99.90;;;;;;5036678;28;20612;-42
2022/07/14 05:21:49;;;;;;;13.20;3.50;;;16.70;99.90;;;;;;5036698;28;20200;-42
2022/07/14 05:24:14;;;;;;;13.17;3.43;;;16.70;99.90;;;;;;5036561;28;20231;-42
2022/07/14 05:26:40;;;;;;;10.33;3.30;;;16.70;99.90;;;;;;5036697;28;20177;-42
2022/07/14 05:29:06;;;;;;;13.87;3.90;;;16.80;99.90;;;;;;5036384;28;20196;-43
2022/07/14 05:31:32;;;;;;;11.50;3.17;;;16.80;99.90;;;;;;5037133;28;20181;-43
2022/07/14 05:33:58;;;;;;;19.70;3.93;;;16.80;99.90;;;;;;5040972;28;20211;-42
2022/07/14 05:36:25;;;;;;;14.83;4.47;;;16.80;99.90;;;;;;5036609;28;20273;-42
2022/07/14 05:38:51;;;;;;;13.90;3.67;;;16.70;99.90;;;;;;5036605;28;20223;-42
2022/07/14 05:41:19;;;;;;;12.10;3.47;;;16.80;99.90;;;;;;5036700;28;20169;-43
2022/07/14 05:43:46;;;;;;;10.63;3.43;;;16.80;99.90;;;;;;5036479;28;20626;-42
2022/07/14 05:46:12;;;;;;;15.30;3.60;;;16.70;99.90;;;;;;5036296;28;20168;-42
2022/07/14 05:48:38;;;;;;;14.97;3.77;;;16.80;99.90;;;;;;5036279;28;20173;-42
2022/07/14 05:51:10;;;;;;;11.87;3.37;;;16.80;99.90;;;;;;5037344;28;20570;-43
2022/07/14 05:53:35;;;;;;;12.77;3.40;;;16.80;99.90;;;;;;5036232;28;20181;-43
2022/07/14 05:56:03;;;;;;;17.47;4.07;;;16.90;99.90;;;;;;5036112;28;20542;-43
2022/07/14 05:58:29;;;;;;;12.13;3.57;;;16.90;99.90;;;;;;5036103;28;20246;-42
2022/07/14 06:00:55;;;;;;;7.57;3.30;;;16.90;99.90;;;;;;5036029;28;20268;-42
2022/07/14 06:03:21;;;;;;;9.03;3.10;;;16.90;99.90;;;;;;5035922;28;20212;-44
2022/07/14 06:05:46;;;;;;;12.63;3.90;;;16.90;99.90;;;;;;5036144;28;20209;-42
2022/07/14 06:08:12;;;;;;;12.93;3.53;;;16.90;99.90;;;;;;5035798;28;20199;-44
2022/07/14 06:10:38;;;;;;;8.20;3.17;;;17.00;99.90;;;;;;5035715;28;20564;-43
2022/07/14 06:13:04;;;;;;;14.53;3.90;;;17.00;99.90;;;;;;5041009;28;20177;-42
2022/07/14 06:15:30;;;;;;;13.17;4.17;;;17.00;99.90;;;;;;5034566;28;20645;-43
2022/07/14 06:17:56;;;;;;;13.77;3.90;;;17.00;99.90;;;;;;5035833;28;20243;-42
2022/07/14 06:20:22;;;;;;;8.13;3.60;;;17.00;99.90;;;;;;5036116;28;20197;-43
2022/07/14 06:22:48;;;;;;;17.40;4.40;;;17.00;99.90;;;;;;5035472;28;20714;-44
2022/07/14 06:25:13;;;;;;;7.87;3.40;;;17.10;99.90;;;;;;5035708;28;20184;-42
2022/07/14 06:27:39;;;;;;;19.07;4.47;;;17.10;99.90;;;;;;5035128;28;20515;-44
2022/07/14 06:30:07;;;;;;;13.47;3.80;;;17.20;99.90;;;;;;5034161;28;20236;-43
2022/07/14 06:32:33;;;;;;;10.60;4.03;;;17.20;99.90;;;;;;5035910;28;20176;-43
2022/07/14 06:34:58;;;;;;;14.60;4.13;;;17.30;99.90;;;;;;5035327;28;20577;-43
2022/07/14 06:37:24;;;;;;;15.00;4.27;;;17.30;99.90;;;;;;5033990;28;20215;-42
2022/07/14 06:39:50;;;;;;;14.73;3.87;;;17.40;99.90;;;;;;5040638;28;20215;-43
2022/07/14 06:42:16;;;;;;;9.93;3.90;;;17.50;99.90;;;;;;5035622;28;20173;-43
2022/07/14 06:44:41;;;;;;;12.87;4.20;;;17.40;99.90;;;;;;5036037;28;20707;-44
2022/07/14 06:47:07;;;;;;;16.43;4.67;;;17.50;99.90;;;;;;5035175;28;20181;-44
2022/07/14 06:49:32;;;;;;;18.07;4.40;;;17.50;99.90;;;;;;5033811;28;20201;-44
2022/07/14 06:51:58;;;;;;;13.33;4.03;;;17.50;99.90;;;;;;5035079;28;20180;-44
2022/07/14 06:54:24;;;;;;;15.23;4.57;;;17.60;99.90;;;;;;5035563;28;20585;-43
2022/07/14 06:56:49;;;;;;;13.53;3.77;;;17.70;99.90;;;;;;5035410;28;20180;-41
2022/07/14 06:59:15;;;;;;;13.77;3.83;;;17.80;99.90;;;;;;5035133;28;20221;-41
2022/07/14 07:01:40;;;;;;;12.07;4.27;;;17.80;99.90;;;;;;5033556;28;20215;-45
2022/07/14 07:04:06;;;;;;;16.53;4.27;;;17.90;99.90;;;;;;5035030;28;20177;-44
2022/07/14 07:06:44;;;;;;;17.77;4.40;;;17.90;99.90;;;;;;5034974;28;20192;-43
2022/07/14 07:09:15;;;;;;;11.13;3.30;;;17.90;99.90;;;;;;5034595;28;20203;-43
2022/07/14 07:11:43;;;;;;;12.47;3.57;;;18.00;99.90;;;;;;5033741;28;20552;-44
2022/07/14 07:14:10;;;;;;;11.03;3.50;;;18.10;99.90;;;;;;5034839;28;20180;-43
2022/07/14 07:16:35;;;;;;;12.43;3.97;;;18.10;99.90;;;;;;5034626;28;20181;-44
2022/07/14 07:19:01;;;;;;;13.27;3.93;;;18.20;99.90;;;;;;5035741;28;20201;-44
2022/07/14 07:21:27;;;;;;;9.77;3.10;;;18.30;99.90;;;;;;5037004;28;20637;-43
2022/07/14 07:23:54;;;;;;;15.27;4.10;;;18.40;99.90;;;;;;5033467;28;20205;-44
2022/07/14 07:26:22;;;;;;;14.93;3.60;;;18.50;99.90;;;;;;5034823;28;20181;-43
2022/07/14 07:28:49;;;;;;;14.77;4.50;;;18.60;99.90;;;;;;5034852;28;20260;-41
2022/07/14 07:31:15;;;;;;;15.77;4.43;;;18.80;99.90;;;;;;5034652;28;20192;-42
2022/07/14 07:33:40;;;;;;;15.53;4.60;;;18.90;99.90;;;;;;5034242;28;20181;-42
2022/07/14 07:36:06;;;;;;;14.93;4.00;;;19.00;99.90;;;;;;5034213;28;20176;-44
2022/07/14 07:38:32;;;;;;;14.50;4.50;;;19.00;99.90;;;;;;5033864;28;20209;-44
2022/07/14 07:41:00;;;;;;;15.77;4.30;;;19.20;99.90;;;;;;5033608;28;20208;-42
2022/07/14 07:43:26;;;;;;;16.27;4.17;;;19.20;99.90;;;;;;5034533;28;20181;-43
2022/07/14 07:45:53;;;;;;;15.43;4.03;;;19.30;99.90;;;;;;5034328;28;20660;-44
2022/07/14 07:48:19;;;;;;;15.73;4.80;;;19.40;99.90;;;;;;5036227;28;20173;-43
2022/07/14 07:50:45;;;;;;;15.53;4.20;;;19.50;99.90;;;;;;5034038;28;20200;-43
2022/07/14 07:53:11;;;;;;;12.50;3.60;;;19.70;99.90;;;;;;5034160;28;20204;-43
2022/07/14 07:55:38;;;;;;;11.67;3.93;;;19.80;99.90;;;;;;5034096;28;20574;-42
2022/07/14 07:58:05;;;;;;;11.77;3.17;;;19.90;99.90;;;;;;5035524;28;20204;-43
2022/07/14 08:00:31;;;;;;;12.47;3.70;;;20.00;99.90;;;;;;5035852;28;20193;-40
2022/07/14 08:02:57;;;;;;;8.07;2.43;;;20.00;99.90;;;;;;5034006;28;20181;-40
2022/07/14 08:05:28;;;;;;;8.67;2.27;;;20.30;99.90;;;;;;5036090;28;20177;-38
2022/07/14 08:07:54;;;;;;;8.63;2.50;;;20.30;99.90;;;;;;5033989;28;20176;-39
2022/07/14 08:10:20;;;;;;;9.93;3.13;;;20.40;99.90;;;;;;5033475;28;20252;-41
2022/07/14 08:12:46;;;;;;;8.63;2.63;;;20.40;99.90;;;;;;5033781;28;20172;-41
2022/07/14 08:15:12;;;;;;;9.80;3.07;;;20.50;99.90;;;;;;5033768;28;20587;-39
2022/07/14 08:17:39;;;;;;;11.93;2.63;;;20.70;99.90;;;;;;5033748;28;20577;-39
2022/07/14 08:20:06;;;;;;;8.93;2.50;;;20.70;99.90;;;;;;5033498;28;20230;-41
2022/07/14 08:22:31;;;;;;;6.07;2.10;;;20.70;99.90;;;;;;5033416;28;20184;-40
2022/07/14 08:24:57;;;;;;;11.60;2.77;;;20.70;99.90;;;;;;5033472;28;20180;-40
2022/07/14 08:27:23;;;;;;;15.50;2.87;;;20.70;99.90;;;;;;5033677;28;20291;-40
2022/07/14 08:29:49;;;;;;;8.47;2.03;;;20.70;99.90;;;;;;5032787;28;20215;-39
2022/07/14 08:32:17;;;;;;;10.10;2.63;;;20.70;99.90;;;;;;5033158;28;20181;-40
2022/07/14 08:34:43;;;;;;;6.63;2.37;;;20.60;99.90;;;;;;5032428;28;20180;-37
2022/07/14 08:37:09;;;;;;;8.93;2.53;;;20.60;99.90;;;;;;5033099;28;20208;-40
2022/07/14 08:39:35;;;;;;;11.07;2.97;;;20.70;99.90;;;;;;5033199;28;20575;-40
2022/07/14 08:42:02;;;;;;;10.40;2.50;;;20.80;99.90;;;;;;5033786;28;20565;-38
2022/07/14 08:44:28;;;;;;;8.33;2.73;;;20.90;99.90;;;;;;5033514;28;20181;-38
2022/07/14 08:46:57;;;;;;;9.57;2.40;;;20.90;99.90;;;;;;5033490;28;20268;-40
2022/07/14 08:49:23;;;;;;;6.17;1.90;;;21.00;99.90;;;;;;5033069;28;20283;-41
2022/07/14 08:51:49;;;;;;;11.10;1.90;;;21.00;99.90;;;;;;5036898;28;20272;-40
2022/07/14 08:54:16;;;;;;;4.60;1.53;;;21.10;99.90;;;;;;5037176;28;20625;-39
2022/07/14 08:56:43;;;;;;;4.93;1.57;;;21.10;99.90;;;;;;5037191;28;20172;-40
2022/07/14 08:59:09;;;;;;;7.27;1.50;;;21.20;99.90;;;;;;5037233;28;20219;-40
2022/07/14 09:01:36;;;;;;;8.93;1.80;;;21.30;99.90;;;;;;5037237;28;20188;-38
2022/07/14 09:04:02;;;;;;;8.07;2.03;;;21.30;99.90;;;;;;5037223;28;20695;-38
2022/07/14 09:06:52;;;;;;;4.07;1.20;;;21.40;99.90;;;;;;5037170;28;20629;-38
2022/07/14 09:09:24;;;;;;;7.77;1.80;;;21.50;99.90;;;;;;5037097;28;20213;-39
2022/07/14 09:11:53;;;;;;;6.20;1.63;;;21.50;99.90;;;;;;5036897;28;20170;-39
2022/07/14 09:14:19;;;;;;;6.90;1.40;;;21.60;99.90;;;;;;5036755;28;20181;-39
2022/07/14 09:16:45;;;;;;;3.87;1.40;;;21.60;99.90;;;;;;5037165;28;20579;-39
2022/07/14 09:19:15;;;;;;;6.67;1.83;;;21.70;99.90;;;;;;5036879;28;20266;-41
2022/07/14 09:21:46;;;;;;;5.50;1.47;;;21.90;99.90;;;;;;5036606;28;20214;-38
2022/07/14 09:24:16;;;;;;;9.07;1.80;;;22.00;99.90;;;;;;5036915;28;20255;-40
2022/07/14 09:26:44;;;;;;;7.63;1.57;;;22.10;99.90;;;;;;5036817;28;20181;-41
2022/07/14 09:29:16;;;;;;;10.27;2.00;;;22.00;99.90;;;;;;5036326;28;20247;-38
2022/07/14 09:31:42;;;;;;;8.17;1.53;;;22.00;99.90;;;;;;5037145;28;20180;-41
2022/07/14 09:34:09;;;;;;;7.60;1.67;;;22.20;99.90;;;;;;5037223;28;20267;-39
2022/07/14 09:36:37;;;;;;;5.40;1.50;;;22.30;99.90;;;;;;5035089;28;20695;-39
2022/07/14 09:39:06;;;;;;;8.27;1.50;;;22.20;99.90;;;;;;5036662;28;20247;-40
2022/07/14 09:41:48;;;;;;;5.87;1.40;;;22.20;99.90;;;;;;5036612;28;20204;-40
2022/07/14 09:44:19;;;;;;;5.37;1.33;;;22.30;99.90;;;;;;5036617;28;20169;-40
2022/07/14 09:46:51;;;;;;;3.93;1.23;;;22.50;99.90;;;;;;5036631;28;20162;-41
2022/07/14 09:49:18;;;;;;;4.67;1.60;;;22.60;99.90;;;;;;5036388;28;20201;-39
2022/07/14 09:52:03;;;;;;;7.17;1.43;;;22.50;99.90;;;;;;5036187;28;20188;-41
2022/07/14 09:54:47;;;;;;;7.90;1.60;;;22.50;99.90;;;;;;5036601;28;20203;-39
2022/07/14 09:57:13;;;;;;;7.53;1.27;;;22.50;99.90;;;;;;5036029;28;20173;-40
2022/07/14 09:59:56;;;;;;;6.23;1.50;;;22.50;99.90;;;;;;5036136;28;20221;-40
2022/07/14 10:02:28;;;;;;;4.33;0.97;;;22.60;99.90;;;;;;5035611;28;20252;-40
2022/07/14 10:05:01;;;;;;;5.87;1.30;;;22.70;99.90;;;;;;5035875;28;20209;-40
2022/07/14 10:07:27;;;;;;;4.40;1.47;;;22.70;99.90;;;;;;5036225;28;20171;-38
2022/07/14 10:09:59;;;;;;;5.40;1.43;;;22.70;99.90;;;;;;5035775;28;20254;-40
2022/07/14 10:12:26;;;;;;;4.17;1.20;;;22.70;99.90;;;;;;5034675;28;20208;-40
2022/07/14 10:14:53;;;;;;;6.53;1.77;;;22.70;99.90;;;;;;5036038;28;20195;-40
2022/07/14 10:17:20;;;;;;;4.93;1.70;;;22.70;99.90;;;;;;5035723;28;20263;-40
2022/07/14 10:19:46;;;;;;;5.67;1.67;;;22.90;99.90;;;;;;5035891;28;20208;-39
2022/07/14 10:22:14;;;;;;;6.80;2.10;;;23.00;99.90;;;;;;5035962;28;20185;-40
2022/07/14 10:24:40;;;;;;;3.60;1.33;;;23.00;99.90;;;;;;5035904;28;20212;-40
2022/07/14 10:27:08;;;;;;;5.13;1.37;;;23.10;99.90;;;;;;5035784;28;20609;-40
2022/07/14 10:29:34;;;;;;;4.47;1.40;;;23.10;99.90;;;;;;5034539;28;20606;-41
2022/07/14 10:32:08;;;;;;;6.90;1.43;;;23.10;99.90;;;;;;5035861;28;20184;-39
2022/07/14 10:34:52;;;;;;;5.97;1.57;;;23.10;99.90;;;;;;5036027;28;20173;-40
2022/07/14 10:37:26;;;;;;;5.53;1.27;;;23.20;99.90;;;;;;5035785;28;20296;-40
2022/07/14 10:40:08;;;;;;;5.13;1.20;;;23.30;99.90;;;;;;5035839;28;20220;-40
2022/07/14 10:43:00;;;;;;;6.60;1.30;;;23.40;99.90;;;;;;5035530;28;20242;-40
2022/07/14 10:45:26;;;;;;;4.27;1.40;;;23.40;99.90;;;;;;5024688;28;20642;-40
2022/07/14 10:47:53;;;;;;;4.80;1.40;;;23.60;99.90;;;;;;5035749;28;20189;-40
2022/07/14 10:50:24;;;;;;;4.97;1.67;;;23.70;99.90;;;;;;5034527;28;20354;-41
2022/07/14 10:53:00;;;;;;;6.67;1.53;;;23.70;99.90;;;;;;5036899;28;20184;-41
2022/07/14 10:55:28;;;;;;;6.07;1.10;;;23.60;99.90;;;;;;5039475;28;20176;-39
2022/07/14 10:58:00;;;;;;;3.07;1.30;;;23.60;99.90;;;;;;5039516;28;20177;-37
2022/07/14 11:00:44;;;;;;;3.80;1.50;;;23.60;99.90;;;;;;5039330;28;20193;-40
2022/07/14 11:03:24;;;;;;;3.87;1.30;;;23.70;99.90;;;;;;5038805;28;20250;-40
2022/07/14 11:06:07;;;;;;;3.77;1.60;;;23.90;99.90;;;;;;5040080;28;20204;-41
2022/07/14 11:08:40;;;;;;;3.77;1.40;;;24.00;99.90;;;;;;5039796;28;20271;-41
2022/07/14 11:11:19;;;;;;;3.33;1.50;;;24.10;99.90;;;;;;5039558;28;20569;-40
2022/07/14 11:14:00;;;;;;;3.40;1.50;;;24.20;99.80;;;;;;5039304;28;20193;-39
2022/07/14 11:16:47;;;;;;;2.90;1.03;;;24.20;99.70;;;;;;5038073;28;20526;-39
2022/07/14 11:19:24;;;;;;;2.70;1.47;;;24.20;99.90;;;;;;5034401;28;20240;-40
2022/07/14 11:22:12;;;;;;;3.47;1.47;;;24.20;99.40;;;;;;5034521;28;20275;-41
2022/07/14 11:24:48;;;;;;;6.43;2.10;;;24.20;99.90;;;;;;5033491;28;20671;-39
2022/07/14 11:27:37;;;;;;;3.33;1.60;;;24.20;99.90;;;;;;5034746;28;20177;-39
2022/07/14 11:30:20;;;;;;;4.27;1.50;;;24.20;99.90;;;;;;5034243;28;20212;-38
2022/07/14 11:33:07;;;;;;;7.07;1.30;;;24.30;99.90;;;;;;5033015;28;20632;-40
2022/07/14 11:38:37;;;;;;;4.07;1.53;;;24.30;99.50;;;;;;5034040;28;20219;-38
2022/07/14 11:41:08;;;;;;;4.93;1.87;;;24.20;99.30;;;;;;5033968;28;20613;-38
2022/07/14 11:43:35;;;;;;;4.97;1.70;;;24.20;99.10;;;;;;5034346;28;20161;-38
2022/07/14 11:46:04;;;;;;;3.23;1.53;;;24.10;99.10;;;;;;5034053;28;20223;-40
2022/07/14 11:48:44;;;;;;;3.70;1.33;;;24.20;99.90;;;;;;5033991;28;20181;-38
2022/07/14 11:51:11;;;;;;;3.90;1.40;;;24.50;99.90;;;;;;5034090;28;20208;-41
2022/07/14 11:53:38;;;;;;;6.73;1.77;;;24.80;99.90;;;;;;5032531;28;20195;-39
2022/07/14 11:56:06;;;;;;;4.83;1.40;;;25.00;99.90;;;;;;5033811;28;20560;-37
2022/07/14 11:58:32;;;;;;;3.30;1.60;;;25.00;99.90;;;;;;5033770;28;20210;-39
2022/07/14 12:01:00;;;;;;;2.90;1.47;;;25.00;99.40;;;;;;5033711;28;20271;-38
2022/07/14 12:03:26;;;;;;;4.37;1.60;;;25.00;99.90;;;;;;5033673;28;20223;-39
2022/07/14 12:05:54;;;;;;;2.73;1.47;;;25.00;97.50;;;;;;5033729;28;20251;-39
2022/07/14 12:08:27;;;;;;;6.93;1.90;;;24.90;98.40;;;;;;5033898;28;20209;-38
2022/07/14 12:10:53;;;;;;;4.87;1.53;;;24.80;98.40;;;;;;5032342;28;20205;-37
2022/07/14 12:13:20;;;;;;;6.23;1.80;;;24.80;99.90;;;;;;5033568;28;20196;-39
2022/07/14 12:15:49;;;;;;;2.10;1.40;;;25.10;98.90;;;;;;5032205;28;20636;-39
2022/07/14 12:18:15;;;;;;;5.77;1.60;;;25.30;98.80;;;;;;5032965;28;20201;-39
2022/07/14 12:20:46;;;;;;;3.57;1.70;;;25.40;98.70;;;;;;5033443;28;20688;-39
2022/07/14 12:23:14;;;;;;;6.00;2.00;;;25.60;98.30;;;;;;5033449;28;20200;-39
2022/07/14 12:25:45;;;;;;;2.30;1.50;;;25.70;98.50;;;;;;5033245;28;20186;-37
2022/07/14 12:28:13;;;;;;;5.95;1.98;;;25.90;98.90;;;;;;5033644;28;20157;-39
2022/07/14 12:30:53;;;;;;;3.70;1.63;;;25.90;99.90;;;;;;5033280;28;20664;-39
2022/07/14 12:33:28;;;;;;;4.03;1.63;;;26.00;97.50;;;;;;5033597;28;20165;-39
2022/07/14 12:35:57;;;;;;;5.25;1.58;;;26.20;99.80;;;;;;5033613;28;20165;-40
2022/07/14 12:38:24;;;;;;;8.07;1.80;;;26.30;98.50;;;;;;5032718;28;20576;-43
2022/07/14 12:41:00;;;;;;;3.88;1.42;;;26.40;99.40;;;;;;5028432;28;20211;-42
2022/07/14 12:43:26;;;;;;;2.95;1.70;;;26.40;98.90;;;;;;5026307;28;20173;-39
2022/07/14 12:46:18;;;;;;;4.15;1.85;;;26.50;97.70;;;;;;5032690;28;20170;-42
2022/07/14 12:48:49;;;;;;;2.33;1.30;;;26.30;95.30;;;;;;5033069;28;20177;-41
2022/07/14 12:51:20;;;;;;;6.65;1.50;;;26.30;96.50;;;;;;5033246;28;20185;-39
2022/07/14 12:54:07;;;;;;;7.40;1.30;;;26.20;95.90;;;;;;5035069;28;20525;-41
2022/07/14 12:56:36;;;;;;;2.58;1.23;;;26.20;98.00;;;;;;5033936;28;20520;-41
2022/07/14 12:59:06;;;;;;;6.10;1.90;;;26.40;97.40;;;;;;5032964;28;20208;-40